Estación de Peumo Norte
Ultimos registro cada 15 minutos 82
| N° | Estación | Fecha / Hora | Temperatura | Humedad | Lluvia | Velocidad | Dirección | Radiación | Presion |
| 82 | Peumo Norte | 08-05-2026 20:15 | 11,7 | 86,1 | 0 | 0 | 15 | 0,6 | 1003,8 |
| 81 | Peumo Norte | 08-05-2026 20:00 | 11,9 | 85,1 | 0 | 0 | 24 | 0,6 | 1003,7 |
| 80 | Peumo Norte | 08-05-2026 19:45 | 12,3 | 83,8 | 0 | 0 | 37 | 0,6 | 1003,6 |
| 79 | Peumo Norte | 08-05-2026 19:30 | 12,1 | 83,2 | 0 | 0 | 88 | 0,6 | 1003,4 |
| 78 | Peumo Norte | 08-05-2026 19:15 | 12 | 81,9 | 0 | 0 | 108 | 0,6 | 1003,4 |
| 77 | Peumo Norte | 08-05-2026 19:00 | 11,9 | 81,3 | 0 | 0 | 114 | 0,6 | 1003,3 |
| 76 | Peumo Norte | 08-05-2026 18:45 | 12,2 | 79,7 | 0 | 0 | 114 | 0,6 | 1003,2 |
| 75 | Peumo Norte | 08-05-2026 18:30 | 12,1 | 76,2 | 0 | 0 | 114 | 0,6 | 1003 |
| 74 | Peumo Norte | 08-05-2026 18:15 | 13,6 | 72,9 | 0 | 0 | 114 | 0,6 | 1002,9 |
| 73 | Peumo Norte | 08-05-2026 18:00 | 14,7 | 69,3 | 0 | 0 | 114 | 1,9 | 1002,7 |
| 72 | Peumo Norte | 08-05-2026 17:45 | 16,5 | 62,4 | 0 | 0 | 181 | 8,1 | 1003 |
| 71 | Peumo Norte | 08-05-2026 17:30 | 18,8 | 53,4 | 0 | 0 | 234 | 14,4 | 1003 |
| 70 | Peumo Norte | 08-05-2026 17:15 | 19,9 | 54,9 | 0 | 0 | 234 | 34,4 | 1002,7 |
| 69 | Peumo Norte | 08-05-2026 17:00 | 19,2 | 55,3 | 0 | 0 | 234 | 69,4 | 1002,9 |
| 68 | Peumo Norte | 08-05-2026 16:45 | 19,9 | 50,9 | 0 | 0 | 220 | 120,6 | 1002,9 |
| 67 | Peumo Norte | 08-05-2026 16:30 | 19,8 | 50,2 | 0 | 1 | 213 | 146,9 | 1002,9 |
| 66 | Peumo Norte | 08-05-2026 16:15 | 20,2 | 47,4 | 0 | 0,5 | 201 | 178,1 | 1002,8 |
| 65 | Peumo Norte | 08-05-2026 16:00 | 20 | 46,6 | 0 | 0,5 | 160 | 210,6 | 1002,9 |
| 64 | Peumo Norte | 08-05-2026 15:45 | 21 | 44,2 | 0 | 0,5 | 215 | 243,1 | 1003,1 |
| 63 | Peumo Norte | 08-05-2026 15:30 | 20,2 | 46,5 | 0 | 0,5 | 194 | 271,9 | 1003,2 |
| 62 | Peumo Norte | 08-05-2026 15:15 | 20,3 | 45,8 | 0 | 0,5 | 213 | 300,6 | 1002,9 |
| 61 | Peumo Norte | 08-05-2026 15:00 | 20,7 | 44,8 | 0 | 0,5 | 277 | 324,4 | 1003 |
| 60 | Peumo Norte | 08-05-2026 14:45 | 21 | 44,2 | 0 | 0 | 256 | 349,4 | 1002,9 |
| 59 | Peumo Norte | 08-05-2026 14:30 | 21 | 45,1 | 0 | 0 | 302 | 373,1 | 1003 |
| 58 | Peumo Norte | 08-05-2026 14:15 | 20,2 | 47,2 | 0 | 0 | 298 | 393,1 | 1003,6 |
| 57 | Peumo Norte | 08-05-2026 14:00 | 19,8 | 47,5 | 0 | 0 | 317 | 411,9 | 1003,8 |
| 56 | Peumo Norte | 08-05-2026 13:45 | 20,1 | 49,1 | 0 | 0 | 222 | 430,6 | 1003,9 |
| 55 | Peumo Norte | 08-05-2026 13:30 | 19,6 | 52,7 | 0 | 0,5 | 226 | 440,6 | 1004 |
| 54 | Peumo Norte | 08-05-2026 13:15 | 18,3 | 52,6 | 0 | 1 | 222 | 453,1 | 1004,3 |
| 53 | Peumo Norte | 08-05-2026 13:00 | 17,9 | 54,9 | 0 | 1 | 222 | 459,4 | 1004,6 |
| 52 | Peumo Norte | 08-05-2026 12:45 | 17,4 | 56,5 | 0 | 1 | 206 | 466,9 | 1004,8 |
| 51 | Peumo Norte | 08-05-2026 12:30 | 17,9 | 59 | 0 | 0,5 | 115 | 468,1 | 1004,8 |
| 50 | Peumo Norte | 08-05-2026 12:15 | 17,7 | 64,4 | 0 | 0,5 | 110 | 470,6 | 1005,1 |
| 49 | Peumo Norte | 08-05-2026 12:00 | 16,2 | 65,6 | 0 | 0,5 | 107 | 465,6 | 1005,4 |
| 48 | Peumo Norte | 08-05-2026 11:45 | 16 | 65,5 | 0 | 0,5 | 119 | 459,4 | 1005,6 |
| 47 | Peumo Norte | 08-05-2026 11:30 | 15,4 | 69 | 0 | 0 | 125 | 449,4 | 1005,8 |
| 46 | Peumo Norte | 08-05-2026 11:15 | 15,4 | 69,9 | 0 | 0 | 114 | 439,4 | 1006 |
| 45 | Peumo Norte | 08-05-2026 11:00 | 14,6 | 74,3 | 0 | 0 | 111 | 423,1 | 1006,4 |
| 44 | Peumo Norte | 08-05-2026 10:45 | 14,1 | 79,1 | 0 | 0,5 | 84 | 408,1 | 1006,5 |
| 43 | Peumo Norte | 08-05-2026 10:30 | 13,1 | 81,3 | 0 | 0,5 | 97 | 390,6 | 1006,6 |
| 42 | Peumo Norte | 08-05-2026 10:15 | 12,7 | 84,4 | 0 | 0,5 | 94 | 369,4 | 1006,7 |
| 41 | Peumo Norte | 08-05-2026 10:00 | 11,3 | 86,8 | 0 | 0,5 | 125 | 343,1 | 1007 |
| 40 | Peumo Norte | 08-05-2026 09:45 | 11,5 | 90,2 | 0 | 0 | 159 | 315,6 | 1007,2 |
| 39 | Peumo Norte | 08-05-2026 09:30 | 9,6 | 91,9 | 0 | 0 | 153 | 281,9 | 1007,2 |
| 38 | Peumo Norte | 08-05-2026 09:15 | 9,3 | 93,7 | 0 | 0,5 | 108 | 248,1 | 1007,4 |
| 37 | Peumo Norte | 08-05-2026 09:00 | 8,4 | 94,4 | 0 | 1 | 95 | 211,9 | 1007,3 |
| 36 | Peumo Norte | 08-05-2026 08:45 | 8 | 94,7 | 0 | 0 | 143 | 173,1 | 1007,5 |
| 35 | Peumo Norte | 08-05-2026 08:30 | 7,2 | 95 | 0 | 0 | 143 | 141,9 | 1007,6 |
| 34 | Peumo Norte | 08-05-2026 08:15 | 5,8 | 95,5 | 0 | 0 | 145 | 13,1 | 1007,5 |
| 33 | Peumo Norte | 08-05-2026 08:00 | 4,4 | 95,5 | 0 | 0 | 152 | 8,1 | 1007,3 |
| 32 | Peumo Norte | 08-05-2026 07:45 | 4,5 | 95,2 | 0 | 0 | 160 | 5,6 | 1007,3 |
| 31 | Peumo Norte | 08-05-2026 07:30 | 4,4 | 94,5 | 0 | 0 | 157 | 1,9 | 1007,3 |
| 30 | Peumo Norte | 08-05-2026 07:15 | 4,8 | 95,9 | 0 | 0 | 152 | 0,6 | 1007,4 |
| 29 | Peumo Norte | 08-05-2026 07:00 | 4,2 | 94,7 | 0 | 0 | 152 | 0,6 | 1007,5 |
| 28 | Peumo Norte | 08-05-2026 06:45 | 5 | 94,7 | 0 | 0 | 152 | 0,6 | 1007,8 |
| 27 | Peumo Norte | 08-05-2026 06:30 | 5,7 | 95,2 | 0 | 0 | 153 | 0,6 | 1007,9 |
| 26 | Peumo Norte | 08-05-2026 06:15 | 6,5 | 94,8 | 0 | 0 | 168 | 0,6 | 1007,8 |
| 25 | Peumo Norte | 08-05-2026 06:00 | 6,3 | 94,8 | 0 | 0 | 119 | 0,6 | 1007,7 |
| 24 | Peumo Norte | 08-05-2026 05:45 | 6,5 | 94,9 | 0 | 0 | 133 | 0,6 | 1007,9 |
| 23 | Peumo Norte | 08-05-2026 05:30 | 5,1 | 95 | 0 | 0 | 146 | 0,6 | 1007,8 |
| 22 | Peumo Norte | 08-05-2026 05:15 | 5,4 | 94,3 | 0 | 0 | 145 | 0,6 | 1007,6 |
| 21 | Peumo Norte | 08-05-2026 05:00 | 6,1 | 95 | 0 | 0 | 140 | 0,6 | 1007,4 |
| 20 | Peumo Norte | 08-05-2026 04:45 | 6,1 | 94,2 | 0 | 0 | 140 | 0,6 | 1007,2 |
| 19 | Peumo Norte | 08-05-2026 04:30 | 6,8 | 94,5 | 0 | 0 | 140 | 0,6 | 1007,4 |
| 18 | Peumo Norte | 08-05-2026 04:15 | 6,5 | 93,9 | 0 | 0 | 126 | 0,6 | 1007,4 |
| 17 | Peumo Norte | 08-05-2026 04:00 | 5,3 | 94,4 | 0 | 0 | 110 | 0,6 | 1007,3 |
| 16 | Peumo Norte | 08-05-2026 03:45 | 5,4 | 93,6 | 0 | 0 | 110 | 0,6 | 1007,4 |
| 15 | Peumo Norte | 08-05-2026 03:30 | 5,9 | 93,5 | 0 | 0 | 110 | 0,6 | 1007,9 |
| 14 | Peumo Norte | 08-05-2026 03:15 | 6,7 | 93,2 | 0 | 0 | 105 | 0,6 | 1007,9 |
| 13 | Peumo Norte | 08-05-2026 03:00 | 5,5 | 93,1 | 0 | 0 | 102 | 0,6 | 1008 |
| 12 | Peumo Norte | 08-05-2026 02:45 | 5,7 | 92,3 | 0 | 0 | 102 | 0,6 | 1008,1 |
| 11 | Peumo Norte | 08-05-2026 02:30 | 6,4 | 92,7 | 0 | 0 | 112 | 0,6 | 1008,3 |
| 10 | Peumo Norte | 08-05-2026 02:15 | 6,1 | 91,8 | 0 | 0 | 114 | 0,6 | 1008,1 |
| 9 | Peumo Norte | 08-05-2026 02:00 | 7,1 | 91,8 | 0 | 0 | 114 | 0,6 | 1008,1 |
| 8 | Peumo Norte | 08-05-2026 01:45 | 6,2 | 91,6 | 0 | 0 | 114 | 0,6 | 1008,4 |
| 7 | Peumo Norte | 08-05-2026 01:30 | 6,6 | 90,4 | 0 | 0 | 114 | 0,6 | 1008,8 |
| 6 | Peumo Norte | 08-05-2026 01:15 | 7,4 | 89,9 | 0 | 0 | 114 | 0,6 | 1008,7 |
| 5 | Peumo Norte | 08-05-2026 01:00 | 6,9 | 88,9 | 0 | 0 | 117 | 0,6 | 1008,8 |
| 4 | Peumo Norte | 08-05-2026 00:45 | 8 | 88 | 0 | 0 | 115 | 0,6 | 1009,1 |
| 3 | Peumo Norte | 08-05-2026 00:30 | 8,6 | 87,5 | 0 | 0 | 115 | 0,6 | 1008,9 |
| 2 | Peumo Norte | 08-05-2026 00:15 | 9 | 86,1 | 0 | 0 | 112 | 0,6 | 1009,3 |
| 1 | Peumo Norte | 08-05-2026 00:00 | 9,4 | 85,2 | 0 | 0 | 72 | 0,6 | 1009,2 |